Time;durP1;ratioP1;P1;durP2;ratioP2;P2;SDS_P1;SDS_P2;PMS_P1;PMS_P2;Temp;Humidity;BMP_temperature;BMP_pressure;BME280_temperature;BME280_humidity;BME280_pressure;Samples;Min_cycle;Max_cycle;Signal;HPM_P1;HPM_P2
2021/03/03 00:01:53;;;;;;;57.20;22.95;;;;;;;;;;5074052;28;20119;-61
2021/03/03 00:04:19;;;;;;;50.17;20.92;;;;;;;;;;5069732;28;20036;-62
2021/03/03 00:06:45;;;;;;;57.28;21.80;;;;;;;;;;5070759;28;21136;-61
2021/03/03 00:09:11;;;;;;;52.13;20.85;;;;;;;;;;5067749;28;20094;-61
2021/03/03 00:11:37;;;;;;;46.38;20.40;;;;;;;;;;5067760;28;20133;-61
2021/03/03 00:14:03;;;;;;;58.65;22.77;;;;;;;;;;5072763;28;20032;-61
2021/03/03 00:16:29;;;;;;;57.75;22.60;;;;;;;;;;5052800;28;20044;-61
2021/03/03 00:18:54;;;;;;;59.47;23.55;;;;;;;;;;5074420;28;20043;-61
2021/03/03 00:21:20;;;;;;;64.75;24.17;;;;;;;;;;5067561;28;20043;-61
2021/03/03 00:23:46;;;;;;;62.33;24.08;;;;;;;;;;5077883;28;20118;-62
2021/03/03 00:26:12;;;;;;;69.80;24.98;;;;;;;;;;5077398;28;20047;-62
2021/03/03 00:28:38;;;;;;;79.40;25.88;;;;;;;;;;5073398;28;20050;-61
2021/03/03 00:31:04;;;;;;;53.58;21.15;;;;;;;;;;5071827;28;20036;-61
2021/03/03 00:33:30;;;;;;;53.30;21.10;;;;;;;;;;5067863;28;20467;-62
2021/03/03 00:35:56;;;;;;;55.22;22.15;;;;;;;;;;5075698;28;20038;-61
2021/03/03 00:38:22;;;;;;;50.97;20.48;;;;;;;;;;5071915;28;20109;-61
2021/03/03 00:40:48;;;;;;;64.57;23.20;;;;;;;;;;5074090;28;20074;-61
2021/03/03 00:43:14;;;;;;;80.50;25.08;;;;;;;;;;5074538;28;20090;-62
2021/03/03 00:45:40;;;;;;;69.57;23.20;;;;;;;;;;5068247;28;20101;-62
2021/03/03 00:48:06;;;;;;;66.03;24.95;;;;;;;;;;5076664;28;20044;-61
2021/03/03 00:50:32;;;;;;;69.63;24.67;;;;;;;;;;5077857;28;20521;-62
2021/03/03 00:52:58;;;;;;;81.55;26.23;;;;;;;;;;5071126;28;20040;-62
2021/03/03 00:55:24;;;;;;;81.53;25.48;;;;;;;;;;5077386;28;20052;-62
2021/03/03 00:57:50;;;;;;;76.07;26.45;;;;;;;;;;5082364;28;20036;-62
2021/03/03 01:00:16;;;;;;;94.78;28.23;;;;;;;;;;5075338;28;20034;-62
2021/03/03 01:02:42;;;;;;;90.75;26.70;;;;;;;;;;5075924;28;20028;-63
2021/03/03 01:05:08;;;;;;;87.30;26.10;;;;;;;;;;5062557;28;20132;-62
2021/03/03 01:07:34;;;;;;;81.15;25.45;;;;;;;;;;5069316;28;20032;-62
2021/03/03 01:10:03;;;;;;;71.75;23.73;;;;;;;;;;5075470;28;20047;-62
2021/03/03 01:12:29;;;;;;;63.78;22.60;;;;;;;;;;5057954;28;20044;-62
2021/03/03 01:14:55;;;;;;;54.22;20.10;;;;;;;;;;5056687;28;20089;-62
2021/03/03 01:17:21;;;;;;;60.08;20.65;;;;;;;;;;5075189;28;20055;-61
2021/03/03 01:19:49;;;;;;;66.03;21.58;;;;;;;;;;5073810;28;20043;-62
2021/03/03 01:22:15;;;;;;;67.40;21.40;;;;;;;;;;5081102;28;20032;-62
2021/03/03 01:24:41;;;;;;;73.32;22.67;;;;;;;;;;5079771;28;20132;-62
2021/03/03 01:27:09;;;;;;;73.35;21.92;;;;;;;;;;5077701;28;20110;-62
2021/03/03 01:29:35;;;;;;;76.65;25.25;;;;;;;;;;5074872;28;20473;-62
2021/03/03 01:32:01;;;;;;;85.72;25.38;;;;;;;;;;5052853;28;20051;-62
2021/03/03 01:34:27;;;;;;;92.70;27.30;;;;;;;;;;5070400;28;20074;-62
2021/03/03 01:36:56;;;;;;;90.53;26.27;;;;;;;;;;5077547;28;20032;-62
2021/03/03 01:39:22;;;;;;;95.32;27.90;;;;;;;;;;5076727;28;20395;-62
2021/03/03 01:41:48;;;;;;;84.05;25.10;;;;;;;;;;5065554;28;20041;-62
2021/03/03 01:44:16;;;;;;;81.85;22.90;;;;;;;;;;5073328;28;20518;-62
2021/03/03 01:46:42;;;;;;;61.25;21.50;;;;;;;;;;5076656;28;20410;-62
2021/03/03 01:49:08;;;;;;;68.35;22.42;;;;;;;;;;5080836;28;20035;-62
2021/03/03 01:51:34;;;;;;;59.20;19.15;;;;;;;;;;5075296;28;20044;-62
2021/03/03 01:54:00;;;;;;;63.55;22.00;;;;;;;;;;5076251;28;20047;-62
2021/03/03 01:56:26;;;;;;;61.67;21.52;;;;;;;;;;5075037;28;20032;-62
2021/03/03 01:58:52;;;;;;;78.90;22.88;;;;;;;;;;5076233;28;20035;-62
2021/03/03 02:01:18;;;;;;;76.60;24.25;;;;;;;;;;5073410;28;20047;-62
2021/03/03 02:03:44;;;;;;;79.65;24.80;;;;;;;;;;5072257;28;20059;-62
2021/03/03 02:06:13;;;;;;;73.88;22.60;;;;;;;;;;5054922;28;20175;-62
2021/03/03 02:08:43;;;;;;;69.95;21.90;;;;;;;;;;5078708;28;20457;-62
2021/03/03 02:11:15;;;;;;;75.35;22.38;;;;;;;;;;5072449;28;20483;-62
2021/03/03 02:13:42;;;;;;;62.55;20.55;;;;;;;;;;5072453;28;20028;-62
2021/03/03 02:16:09;;;;;;;79.28;23.50;;;;;;;;;;5062644;28;20176;-62
2021/03/03 02:18:36;;;;;;;76.38;22.27;;;;;;;;;;5080099;28;20050;-62
2021/03/03 02:21:02;;;;;;;88.90;25.55;;;;;;;;;;5069616;28;20446;-62
2021/03/03 02:23:35;;;;;;;81.07;24.50;;;;;;;;;;5073452;28;20043;-62
2021/03/03 02:26:03;;;;;;;81.30;23.15;;;;;;;;;;5074611;28;20092;-62
2021/03/03 02:28:32;;;;;;;81.53;24.17;;;;;;;;;;5080082;28;20032;-61
2021/03/03 02:31:01;;;;;;;76.75;22.95;;;;;;;;;;5059640;28;20047;-62
2021/03/03 02:33:27;;;;;;;68.35;22.00;;;;;;;;;;5077236;28;20127;-62
2021/03/03 02:35:56;;;;;;;96.03;25.55;;;;;;;;;;5078496;28;20482;-61
2021/03/03 02:38:22;;;;;;;90.13;25.63;;;;;;;;;;5072140;28;20040;-61
2021/03/03 02:40:50;;;;;;;92.15;24.83;;;;;;;;;;5077171;28;20040;-62
2021/03/03 02:43:17;;;;;;;87.55;24.13;;;;;;;;;;5076470;28;20052;-61
2021/03/03 02:45:44;;;;;;;90.50;24.00;;;;;;;;;;5071576;28;20040;-62
2021/03/03 02:48:10;;;;;;;87.40;24.27;;;;;;;;;;5081620;28;20108;-61
2021/03/03 02:50:36;;;;;;;89.15;25.80;;;;;;;;;;5081698;28;20081;-61
2021/03/03 02:53:03;;;;;;;96.57;25.77;;;;;;;;;;5076459;28;20044;-61
2021/03/03 02:55:30;;;;;;;79.63;25.83;;;;;;;;;;5078700;28;20060;-62
2021/03/03 02:57:59;;;;;;;108.72;26.35;;;;;;;;;;5074313;28;20063;-61
2021/03/03 03:00:27;;;;;;;94.70;26.52;;;;;;;;;;5073703;28;20127;-62
2021/03/03 03:02:58;;;;;;;88.93;24.70;;;;;;;;;;5081114;28;20487;-61
2021/03/03 03:05:27;;;;;;;77.20;23.30;;;;;;;;;;5076156;28;20036;-61
2021/03/03 03:07:56;;;;;;;79.75;23.15;;;;;;;;;;5075673;28;20213;-61
2021/03/03 03:10:23;;;;;;;74.15;21.10;;;;;;;;;;5078134;28;20071;-61
2021/03/03 03:12:51;;;;;;;71.00;20.52;;;;;;;;;;5075781;28;20043;-61
2021/03/03 03:15:19;;;;;;;76.38;19.90;;;;;;;;;;5069907;28;20175;-61
2021/03/03 03:17:46;;;;;;;81.75;21.33;;;;;;;;;;5058298;28;20036;-62
2021/03/03 03:20:14;;;;;;;68.63;20.55;;;;;;;;;;5078166;28;20024;-61
2021/03/03 03:22:40;;;;;;;76.78;21.52;;;;;;;;;;5073983;28;20574;-62
2021/03/03 03:25:09;;;;;;;90.18;23.65;;;;;;;;;;5073574;28;20088;-61
2021/03/03 03:27:36;;;;;;;83.55;23.65;;;;;;;;;;5073983;28;20043;-61
2021/03/03 03:30:04;;;;;;;81.60;23.35;;;;;;;;;;5078148;28;20871;-62
2021/03/03 03:32:30;;;;;;;70.55;22.83;;;;;;;;;;5070648;28;20148;-61
2021/03/03 03:34:57;;;;;;;85.60;23.10;;;;;;;;;;5079612;28;20021;-61
2021/03/03 03:37:24;;;;;;;84.05;23.40;;;;;;;;;;5075653;28;20535;-62
2021/03/03 03:39:50;;;;;;;104.38;23.00;;;;;;;;;;5078114;28;20036;-62
2021/03/03 03:42:18;;;;;;;84.57;23.05;;;;;;;;;;5077171;28;20032;-61
2021/03/03 03:44:46;;;;;;;80.47;24.13;;;;;;;;;;5075068;28;20067;-61
2021/03/03 03:47:18;;;;;;;81.82;23.10;;;;;;;;;;5057101;28;20044;-61
2021/03/03 03:49:44;;;;;;;79.53;23.25;;;;;;;;;;5076988;28;20050;-61
2021/03/03 03:52:13;;;;;;;85.57;22.60;;;;;;;;;;5075013;28;20067;-61
2021/03/03 03:54:39;;;;;;;81.13;23.52;;;;;;;;;;5073079;28;20471;-61
2021/03/03 03:57:05;;;;;;;86.50;25.08;;;;;;;;;;5081072;28;20042;-65
2021/03/03 03:59:31;;;;;;;89.90;24.42;;;;;;;;;;5078133;28;20119;-61
2021/03/03 04:01:57;;;;;;;83.80;22.63;;;;;;;;;;5079374;28;20036;-60
2021/03/03 04:04:22;;;;;;;88.68;22.63;;;;;;;;;;5071126;28;20123;-62
2021/03/03 04:06:49;;;;;;;98.50;23.90;;;;;;;;;;5077902;28;20046;-62
2021/03/03 04:09:15;;;;;;;87.25;23.63;;;;;;;;;;5079682;28;20649;-62
2021/03/03 04:11:41;;;;;;;71.38;21.13;;;;;;;;;;5078855;28;20123;-61
2021/03/03 04:14:10;;;;;;;90.22;23.33;;;;;;;;;;5076549;28;20123;-61
2021/03/03 04:16:38;;;;;;;89.65;25.58;;;;;;;;;;5079036;28;20035;-62
2021/03/03 04:19:04;;;;;;;102.20;26.58;;;;;;;;;;5079181;28;20035;-62
2021/03/03 04:21:30;;;;;;;99.63;24.67;;;;;;;;;;5083420;28;20036;-62
2021/03/03 04:23:56;;;;;;;87.85;23.60;;;;;;;;;;5076041;28;20501;-62
2021/03/03 04:26:22;;;;;;;78.65;21.52;;;;;;;;;;5075708;28;20126;-62
2021/03/03 04:28:48;;;;;;;59.53;18.38;;;;;;;;;;5078224;28;20051;-62
2021/03/03 04:31:14;;;;;;;72.28;22.27;;;;;;;;;;5076027;28;20051;-61
2021/03/03 04:33:40;;;;;;;97.28;25.33;;;;;;;;;;5073375;28;20040;-61
2021/03/03 04:36:06;;;;;;;99.45;24.95;;;;;;;;;;5073930;28;20407;-61
2021/03/03 04:38:34;;;;;;;97.38;23.73;;;;;;;;;;5054878;28;20072;-61
2021/03/03 04:41:00;;;;;;;86.82;24.02;;;;;;;;;;5073329;28;20032;-61
2021/03/03 04:43:26;;;;;;;95.45;24.10;;;;;;;;;;5073118;28;20137;-61
2021/03/03 04:45:52;;;;;;;83.63;24.52;;;;;;;;;;5073479;28;20103;-61
2021/03/03 04:48:18;;;;;;;85.53;23.48;;;;;;;;;;5060918;28;20046;-61
2021/03/03 04:50:44;;;;;;;81.28;23.10;;;;;;;;;;5078258;28;20047;-62
2021/03/03 04:53:10;;;;;;;74.63;21.55;;;;;;;;;;5078783;28;20052;-61
2021/03/03 04:55:38;;;;;;;72.43;20.85;;;;;;;;;;5079741;28;20040;-62
2021/03/03 04:58:07;;;;;;;81.13;22.75;;;;;;;;;;5079032;28;20078;-61
2021/03/03 05:00:34;;;;;;;76.97;23.67;;;;;;;;;;5074684;28;20124;-62
2021/03/03 05:03:00;;;;;;;89.97;23.42;;;;;;;;;;5079329;28;20091;-61
2021/03/03 05:05:26;;;;;;;88.53;23.00;;;;;;;;;;5071116;28;20119;-61
2021/03/03 05:07:52;;;;;;;91.80;23.58;;;;;;;;;;5074588;28;20032;-61
2021/03/03 05:10:18;;;;;;;79.65;23.00;;;;;;;;;;5070577;28;20058;-62
2021/03/03 05:12:44;;;;;;;92.90;23.98;;;;;;;;;;5077012;28;20047;-61
2021/03/03 05:15:10;;;;;;;93.60;24.77;;;;;;;;;;5076734;28;20046;-60
2021/03/03 05:17:36;;;;;;;92.53;23.83;;;;;;;;;;5079542;28;20587;-61
2021/03/03 05:20:02;;;;;;;80.43;22.05;;;;;;;;;;5072930;28;20051;-61
2021/03/03 05:22:28;;;;;;;81.40;22.60;;;;;;;;;;5061810;28;20036;-62
2021/03/03 05:24:54;;;;;;;90.15;23.60;;;;;;;;;;5060843;28;20047;-61
2021/03/03 05:27:20;;;;;;;99.15;24.95;;;;;;;;;;5079986;28;20040;-61
2021/03/03 05:29:46;;;;;;;94.07;24.27;;;;;;;;;;5073285;28;20129;-61
2021/03/03 05:32:12;;;;;;;93.47;23.00;;;;;;;;;;5066296;28;20040;-61
2021/03/03 05:34:38;;;;;;;90.80;23.10;;;;;;;;;;5069501;28;20036;-60
2021/03/03 05:37:04;;;;;;;80.10;21.83;;;;;;;;;;5058381;28;20040;-61
2021/03/03 05:39:30;;;;;;;71.88;22.70;;;;;;;;;;5076360;28;20043;-61
2021/03/03 05:42:02;;;;;;;100.65;23.23;;;;;;;;;;5078509;28;20123;-62
2021/03/03 05:44:28;;;;;;;78.82;23.08;;;;;;;;;;5082534;28;20453;-61
2021/03/03 05:46:56;;;;;;;87.63;21.92;;;;;;;;;;5077071;28;20053;-61
2021/03/03 05:49:26;;;;;;;86.75;22.38;;;;;;;;;;5077523;28;20499;-61
2021/03/03 05:51:54;;;;;;;82.13;22.63;;;;;;;;;;5071501;28;20510;-62
2021/03/03 05:54:21;;;;;;;73.57;22.60;;;;;;;;;;5081742;28;20441;-61
2021/03/03 05:56:47;;;;;;;83.60;22.00;;;;;;;;;;5056381;28;20059;-62
2021/03/03 05:59:18;;;;;;;74.45;22.00;;;;;;;;;;5072779;28;20102;-61
2021/03/03 06:01:47;;;;;;;70.55;22.52;;;;;;;;;;5075240;28;20047;-62
2021/03/03 06:04:12;;;;;;;79.93;23.08;;;;;;;;;;5079429;28;20055;-61
2021/03/03 06:06:42;;;;;;;74.45;21.00;;;;;;;;;;5076669;28;20066;-62
2021/03/03 06:09:09;;;;;;;85.40;21.90;;;;;;;;;;5068972;28;20059;-62
2021/03/03 06:11:35;;;;;;;73.63;20.17;;;;;;;;;;5079202;28;20032;-62
2021/03/03 06:14:01;;;;;;;76.05;20.30;;;;;;;;;;5077653;28;20032;-61
2021/03/03 06:16:29;;;;;;;81.60;22.80;;;;;;;;;;5076539;28;20036;-62
2021/03/03 06:18:56;;;;;;;83.95;23.75;;;;;;;;;;5048452;28;20046;-62
2021/03/03 06:21:29;;;;;;;87.80;22.52;;;;;;;;;;5067638;28;20505;-61
2021/03/03 06:23:59;;;;;;;89.82;22.20;;;;;;;;;;5077595;28;20123;-62
2021/03/03 06:26:25;;;;;;;84.25;21.48;;;;;;;;;;5082409;28;20033;-59
2021/03/03 06:28:51;;;;;;;90.80;21.13;;;;;;;;;;5067047;28;20062;-59
2021/03/03 06:31:24;;;;;;;70.72;21.13;;;;;;;;;;5075313;28;20085;-62
2021/03/03 06:33:51;;;;;;;90.28;22.15;;;;;;;;;;5077586;28;20047;-62
2021/03/03 06:36:26;;;;;;;85.47;21.52;;;;;;;;;;5070692;28;20043;-61
2021/03/03 06:38:52;;;;;;;85.80;23.00;;;;;;;;;;5070066;28;20028;-62
2021/03/03 06:41:21;;;;;;;87.25;23.30;;;;;;;;;;5075083;28;20092;-62
2021/03/03 06:43:59;;;;;;;89.30;23.67;;;;;;;;;;5076336;28;20475;-61
2021/03/03 06:46:25;;;;;;;103.70;25.67;;;;;;;;;;5077856;28;20147;-62
2021/03/03 06:48:51;;;;;;;94.55;24.10;;;;;;;;;;5070071;28;20039;-62
2021/03/03 06:51:21;;;;;;;98.25;26.17;;;;;;;;;;5074303;28;20520;-62
2021/03/03 06:53:50;;;;;;;98.82;25.85;;;;;;;;;;5070069;28;20101;-61
2021/03/03 06:56:36;;;;;;;78.28;23.67;;;;;;;;;;5075847;28;20073;-62
2021/03/03 06:59:18;;;;;;;82.40;23.48;;;;;;;;;;5072701;28;20820;-62
2021/03/03 07:01:51;;;;;;;81.03;22.35;;;;;;;;;;5063140;28;20040;-62
2021/03/03 07:04:18;;;;;;;91.28;25.92;;;;;;;;;;5056379;28;20055;-62
2021/03/03 07:06:44;;;;;;;106.15;26.58;;;;;;;;;;5072300;28;20093;-62
2021/03/03 07:09:11;;;;;;;94.40;24.33;;;;;;;;;;5069193;28;20036;-62
2021/03/03 07:11:38;;;;;;;83.35;24.27;;;;;;;;;;5068825;28;20074;-62
2021/03/03 07:14:18;;;;;;;89.40;25.10;;;;;;;;;;5072900;28;20711;-62
2021/03/03 07:17:00;;;;;;;78.47;23.35;;;;;;;;;;5066181;28;20051;-62
2021/03/03 07:19:26;;;;;;;86.60;23.48;;;;;;;;;;5072044;28;20036;-62
2021/03/03 07:21:52;;;;;;;80.38;23.50;;;;;;;;;;5068578;28;20055;-62
2021/03/03 07:24:20;;;;;;;87.60;23.63;;;;;;;;;;5070230;28;20053;-62
2021/03/03 07:26:47;;;;;;;92.72;24.45;;;;;;;;;;5074768;28;20125;-62
2021/03/03 07:29:13;;;;;;;78.53;22.45;;;;;;;;;;5069362;28;20040;-62
2021/03/03 07:31:40;;;;;;;89.13;24.38;;;;;;;;;;5079953;28;20036;-61
2021/03/03 07:34:09;;;;;;;98.43;25.55;;;;;;;;;;5078422;28;20487;-62
2021/03/03 07:36:36;;;;;;;85.40;24.48;;;;;;;;;;5077073;28;20119;-62
2021/03/03 07:39:04;;;;;;;92.55;26.90;;;;;;;;;;5070058;28;20223;-62
2021/03/03 07:41:33;;;;;;;93.93;26.42;;;;;;;;;;5078171;28;20040;-62
2021/03/03 07:44:02;;;;;;;104.32;26.85;;;;;;;;;;5074647;28;20036;-62
2021/03/03 07:46:29;;;;;;;110.88;29.83;;;;;;;;;;5073659;28;20032;-62
2021/03/03 07:48:55;;;;;;;97.35;28.23;;;;;;;;;;5074946;28;20391;-62
2021/03/03 07:51:24;;;;;;;104.93;30.77;;;;;;;;;;5069790;28;20449;-62
2021/03/03 07:53:50;;;;;;;108.82;30.23;;;;;;;;;;5066574;28;20046;-62
2021/03/03 07:56:17;;;;;;;85.43;26.92;;;;;;;;;;5069620;28;20043;-62
2021/03/03 07:58:43;;;;;;;82.28;26.63;;;;;;;;;;5078447;28;20143;-62
2021/03/03 08:01:11;;;;;;;80.15;25.42;;;;;;;;;;5076503;28;20032;-62
2021/03/03 08:03:50;;;;;;;85.50;26.00;;;;;;;;;;5073334;28;20039;-62
2021/03/03 08:06:35;;;;;;;85.30;27.58;;;;;;;;;;5077205;28;20039;-62
2021/03/03 08:09:10;;;;;;;113.85;33.10;;;;;;;;;;5076482;28;20036;-61
2021/03/03 08:11:37;;;;;;;111.88;32.92;;;;;;;;;;5069037;28;20063;-62
2021/03/03 08:14:23;;;;;;;110.75;34.30;;;;;;;;;;5072491;28;20097;-62
2021/03/03 08:16:53;;;;;;;115.72;33.60;;;;;;;;;;5070953;28;20050;-62
2021/03/03 08:19:19;;;;;;;112.18;34.33;;;;;;;;;;5073697;28;20039;-62
2021/03/03 08:21:48;;;;;;;106.88;34.45;;;;;;;;;;5072934;28;20043;-62
2021/03/03 08:24:37;;;;;;;101.85;35.75;;;;;;;;;;5069162;28;20493;-61
2021/03/03 08:27:04;;;;;;;97.90;34.38;;;;;;;;;;5069858;28;20094;-62
2021/03/03 08:29:30;;;;;;;98.43;34.92;;;;;;;;;;5075499;28;20616;-62
2021/03/03 08:32:21;;;;;;;101.65;36.30;;;;;;;;;;5075950;28;20036;-62
2021/03/03 08:34:51;;;;;;;89.60;36.20;;;;;;;;;;5073751;28;20036;-62
2021/03/03 08:37:27;;;;;;;86.10;34.00;;;;;;;;;;5070852;28;20039;-62
2021/03/03 08:39:53;;;;;;;71.30;30.63;;;;;;;;;;5078397;28;20105;-62
2021/03/03 08:42:32;;;;;;;64.00;27.90;;;;;;;;;;5071734;28;20036;-62
2021/03/03 08:44:59;;;;;;;58.08;27.50;;;;;;;;;;5075589;28;20064;-62
2021/03/03 08:47:44;;;;;;;56.95;23.63;;;;;;;;;;5066363;28;20495;-62
2021/03/03 08:50:33;;;;;;;46.63;21.67;;;23.80;28.20;;;;;;5073821;28;20036;-61
2021/03/03 08:53:22;;;;;;;44.72;21.25;;;12.00;62.40;;;;;;5068679;28;20036;-61
2021/03/03 08:55:49;;;;;;;46.33;21.63;;;12.00;61.80;;;;;;5070238;28;20503;-62
2021/03/03 08:58:35;;;;;;;46.00;20.60;;;12.20;61.20;;;;;;5073798;28;20036;-61
2021/03/03 09:01:03;;;;;;;40.10;20.10;;;12.30;60.60;;;;;;5049849;28;20402;-62
2021/03/03 09:03:29;;;;;;;37.13;20.63;;;12.50;60.30;;;;;;5051592;28;20479;-62
2021/03/03 09:05:58;;;;;;;46.00;20.75;;;12.70;60.00;;;;;;5075436;28;20060;-61
2021/03/03 09:08:24;;;;;;;45.53;20.35;;;12.80;59.60;;;;;;5072466;28;20050;-61
2021/03/03 09:10:51;;;;;;;37.03;20.05;;;13.00;59.10;;;;;;5071679;28;20157;-62
2021/03/03 09:13:27;;;;;;;43.85;21.27;;;13.20;58.60;;;;;;5071977;28;20036;-61
2021/03/03 09:16:06;;;;;;;45.35;21.33;;;13.40;58.40;;;;;;5068477;28;20044;-61
2021/03/03 09:18:35;;;;;;;39.90;19.80;;;13.60;58.20;;;;;;5068346;28;20063;-61
2021/03/03 09:21:12;;;;;;;38.20;19.75;;;13.90;57.90;;;;;;5068486;28;20491;-61
2021/03/03 09:23:40;;;;;;;36.05;18.95;;;14.10;57.20;;;;;;5079062;28;20043;-61
2021/03/03 09:26:34;;;;;;;38.30;19.13;;;14.30;56.70;;;;;;5074903;28;20268;-61
2021/03/03 09:28:59;;;;;;;43.30;21.08;;;14.50;56.50;;;;;;5072273;28;20064;-62
2021/03/03 09:31:30;;;;;;;41.35;19.52;;;14.70;56.00;;;;;;5073486;28;20132;-61
2021/03/03 09:33:56;;;;;;;39.47;18.80;;;14.90;55.40;;;;;;5073670;28;20055;-61
2021/03/03 09:36:23;;;;;;;37.72;19.67;;;15.00;54.70;;;;;;5076797;28;20036;-62
2021/03/03 09:39:00;;;;;;;38.45;20.67;;;15.20;54.20;;;;;;5077414;28;20503;-62
2021/03/03 09:41:27;;;;;;;40.67;20.40;;;15.50;53.90;;;;;;5071412;28;20670;-62
2021/03/03 09:44:04;;;;;;;39.75;19.13;;;15.70;53.20;;;;;;5071692;28;20032;-62
2021/03/03 09:46:53;;;;;;;43.15;19.80;;;15.90;53.20;;;;;;5073333;28;20450;-62
2021/03/03 09:49:31;;;;;;;36.95;20.05;;;16.00;52.30;;;;;;5079912;28;20047;-62
2021/03/03 09:51:59;;;;;;;42.55;20.13;;;16.20;51.90;;;;;;5076784;28;20105;-62
2021/03/03 09:54:34;;;;;;;40.85;20.65;;;16.40;51.20;;;;;;5080294;28;20492;-62
2021/03/03 09:57:13;;;;;;;37.67;20.00;;;16.50;50.30;;;;;;5075170;28;20028;-62
2021/03/03 09:59:43;;;;;;;40.70;20.85;;;16.40;50.00;;;;;;5079011;28;20063;-62
2021/03/03 10:02:11;;;;;;;38.92;21.55;;;16.30;49.80;;;;;;5075835;28;20038;-62
2021/03/03 10:04:43;;;;;;;39.83;21.17;;;16.20;50.10;;;;;;5067267;28;20048;-62
2021/03/03 10:07:18;;;;;;;38.03;20.50;;;16.20;50.40;;;;;;5071150;28;20117;-62
2021/03/03 10:09:46;;;;;;;42.90;21.25;;;16.40;50.40;;;;;;5042521;28;20244;-63
2021/03/03 10:12:20;;;;;;;37.25;19.30;;;16.80;50.50;;;;;;5058085;28;20052;-63
2021/03/03 10:15:08;;;;;;;38.28;20.17;;;17.40;49.10;;;;;;5070207;28;20056;-62
2021/03/03 10:17:35;;;;;;;37.03;19.33;;;17.80;47.90;;;;;;5056031;28;20372;-62
2021/03/03 10:20:03;;;;;;;39.60;19.40;;;17.90;47.40;;;;;;5071664;28;20028;-62
2021/03/03 10:22:30;;;;;;;37.33;19.85;;;18.00;47.00;;;;;;5071445;28;20043;-62
2021/03/03 10:25:06;;;;;;;36.67;19.67;;;18.20;47.10;;;;;;5066960;28;20040;-62
2021/03/03 10:27:38;;;;;;;38.95;19.02;;;18.70;46.40;;;;;;5076461;28;20039;-62
2021/03/03 10:30:21;;;;;;;36.15;18.95;;;19.60;46.00;;;;;;5073135;28;20039;-62
2021/03/03 10:32:50;;;;;;;38.92;19.45;;;20.80;44.00;;;;;;5073090;28;20047;-62
2021/03/03 10:35:16;;;;;;;42.08;20.15;;;21.70;42.10;;;;;;5075045;28;20036;-62
2021/03/03 10:37:41;;;;;;;36.80;19.27;;;22.10;40.20;;;;;;5079292;28;20040;-62
2021/03/03 10:40:15;;;;;;;38.17;20.90;;;22.30;39.20;;;;;;5075644;28;20044;-63
2021/03/03 10:42:42;;;;;;;36.35;19.83;;;22.10;38.30;;;;;;5070761;28;20044;-62
2021/03/03 10:45:26;;;;;;;35.85;19.60;;;21.80;38.70;;;;;;5071768;28;20040;-63
2021/03/03 10:47:53;;;;;;;35.90;19.30;;;21.80;39.00;;;;;;5068330;28;20889;-63
2021/03/03 10:50:20;;;;;;;37.88;19.55;;;22.30;38.60;;;;;;5062523;28;20073;-63
2021/03/03 10:52:53;;;;;;;41.58;20.92;;;22.80;37.30;;;;;;5059802;28;20495;-63
2021/03/03 10:55:24;;;;;;;36.58;19.33;;;23.10;36.60;;;;;;5063552;28;20036;-63
2021/03/03 10:58:08;;;;;;;32.72;19.00;;;23.60;36.50;;;;;;5076314;28;20555;-63
2021/03/03 11:00:53;;;;;;;37.92;20.85;;;24.20;35.10;;;;;;5055828;28;20040;-63
2021/03/03 11:03:20;;;;;;;31.13;19.40;;;25.10;34.10;;;;;;5067300;28;20324;-63
2021/03/03 11:05:53;;;;;;;34.42;20.00;;;25.80;32.80;;;;;;5068228;28;20310;-63
2021/03/03 11:08:19;;;;;;;36.63;20.92;;;26.30;31.40;;;;;;5061962;28;20036;-63
2021/03/03 11:10:45;;;;;;;34.40;20.45;;;26.70;31.10;;;;;;5059119;28;20788;-63
2021/03/03 11:13:11;;;;;;;35.92;20.08;;;27.30;30.20;;;;;;5040621;28;20037;-63
2021/03/03 11:15:40;;;;;;;32.53;19.92;;;27.70;29.60;;;;;;5072620;28;20488;-63
2021/03/03 11:18:06;;;;;;;38.88;20.83;;;28.10;28.70;;;;;;5073440;28;20556;-63
2021/03/03 11:20:34;;;;;;;42.78;19.33;;;28.30;28.70;;;;;;5078699;28;20085;-63
2021/03/03 11:22:59;;;;;;;39.58;21.45;;;28.50;28.30;;;;;;5074040;28;20036;-61
2021/03/03 11:25:25;;;;;;;35.75;20.67;;;28.50;28.00;;;;;;5050330;28;20043;-64
2021/03/03 11:27:50;;;;;;;38.33;20.77;;;28.10;27.70;;;;;;5067012;28;20036;-64
2021/03/03 11:30:16;;;;;;;37.92;20.17;;;27.60;28.10;;;;;;5073178;28;20039;-62
2021/03/03 11:32:46;;;;;;;35.30;21.00;;;27.20;28.60;;;;;;5076415;28;20037;-64
2021/03/03 11:35:12;;;;;;;40.80;21.42;;;27.20;28.80;;;;;;5073780;28;20331;-63
2021/03/03 11:37:37;;;;;;;50.45;22.70;;;27.20;28.60;;;;;;5070961;28;20028;-63
2021/03/03 11:40:04;;;;;;;42.88;22.15;;;27.30;28.30;;;;;;5078479;28;20560;-63
2021/03/03 11:42:29;;;;;;;42.15;22.77;;;27.50;28.50;;;;;;5071745;28;20534;-63
2021/03/03 11:44:55;;;;;;;43.55;21.42;;;27.60;28.30;;;;;;5063342;28;20519;-63
2021/03/03 11:47:21;;;;;;;41.65;23.17;;;27.80;28.20;;;;;;5061277;28;20036;-62
2021/03/03 11:49:46;;;;;;;45.60;24.80;;;28.00;28.10;;;;;;5066953;28;20629;-63
2021/03/03 11:52:12;;;;;;;46.35;23.58;;;28.00;27.80;;;;;;5065312;28;21164;-63
2021/03/03 11:54:40;;;;;;;45.85;25.83;;;27.90;27.90;;;;;;5072510;28;20046;-63
2021/03/03 11:57:05;;;;;;;50.72;25.65;;;27.60;28.00;;;;;;5071045;28;20044;-63
2021/03/03 11:59:33;;;;;;;53.35;27.77;;;27.20;28.50;;;;;;5072180;28;20121;-63
2021/03/03 12:01:59;;;;;;;55.80;29.70;;;26.70;28.60;;;;;;5078072;28;20136;-63
2021/03/03 12:04:27;;;;;;;56.33;30.10;;;26.30;28.80;;;;;;5060901;28;20058;-63
2021/03/03 12:06:53;;;;;;;54.08;30.73;;;25.90;29.50;;;;;;5053650;28;20130;-63
2021/03/03 12:09:18;;;;;;;58.92;31.05;;;25.60;29.80;;;;;;5074155;28;20138;-63
2021/03/03 12:11:44;;;;;;;58.63;30.92;;;25.20;30.00;;;;;;5080200;28;20036;-64
2021/03/03 12:14:09;;;;;;;57.65;32.28;;;25.00;30.30;;;;;;5077136;28;20047;-64
2021/03/03 12:16:35;;;;;;;53.67;31.00;;;24.80;30.80;;;;;;5068209;28;20043;-63
2021/03/03 12:19:01;;;;;;;61.83;32.83;;;24.50;31.60;;;;;;5075530;28;20039;-63
2021/03/03 12:21:26;;;;;;;60.58;33.80;;;24.30;31.60;;;;;;5081597;28;20509;-63
2021/03/03 12:23:52;;;;;;;58.47;33.75;;;24.00;32.00;;;;;;5082629;28;20043;-63
2021/03/03 12:26:18;;;;;;;56.75;31.95;;;23.80;32.70;;;;;;5081628;28;20077;-63
2021/03/03 12:28:43;;;;;;;57.38;31.83;;;23.60;33.20;;;;;;5077614;28;20089;-63
2021/03/03 12:31:11;;;;;;;58.65;32.65;;;23.30;32.80;;;;;;5074424;28;20126;-63
2021/03/03 12:33:38;;;;;;;60.85;34.03;;;23.00;33.20;;;;;;5077018;28;20051;-63
2021/03/03 12:36:06;;;;;;;63.45;32.45;;;22.80;33.60;;;;;;5073611;28;20128;-63
2021/03/03 12:38:33;;;;;;;59.92;33.13;;;22.40;33.70;;;;;;5053568;28;20043;-63
2021/03/03 12:40:59;;;;;;;56.97;33.00;;;22.00;34.70;;;;;;5075099;28;20050;-63
2021/03/03 12:43:24;;;;;;;61.92;33.63;;;21.70;35.60;;;;;;5074105;28;20035;-63
2021/03/03 12:45:50;;;;;;;65.22;32.80;;;21.40;36.60;;;;;;5080613;28;20034;-63
2021/03/03 12:48:15;;;;;;;61.17;32.50;;;21.30;36.90;;;;;;5067929;28;20028;-63
2021/03/03 12:50:43;;;;;;;64.93;35.60;;;21.20;37.00;;;;;;5085740;28;20411;-62
2021/03/03 12:53:12;;;;;;;66.03;36.03;;;21.00;37.30;;;;;;5078310;28;20110;-62
2021/03/03 12:55:38;;;;;;;69.15;37.58;;;20.70;37.40;;;;;;5079745;28;20470;-63
2021/03/03 12:58:06;;;;;;;71.72;37.78;;;20.50;37.80;;;;;;5081736;28;20036;-63
2021/03/03 13:00:31;;;;;;;70.82;37.67;;;20.30;38.00;;;;;;5080436;28;20525;-63
2021/03/03 13:02:57;;;;;;;71.85;37.97;;;;;;;;;;5085446;28;20140;-63
2021/03/03 13:05:23;;;;;;;70.80;39.33;;;;;;;;;;5085790;28;20131;-63
2021/03/03 13:07:49;;;;;;;68.00;38.33;;;;;;;;;;5085796;28;20112;-63
2021/03/03 13:10:15;;;;;;;68.15;37.60;;;;;;;;;;5085834;28;20032;-63
2021/03/03 13:12:41;;;;;;;65.75;36.85;;;;;;;;;;5087240;28;20039;-63
2021/03/03 13:15:08;;;;;;;66.70;36.40;;;;;;;;;;5075980;28;20057;-63
2021/03/03 13:17:34;;;;;;;69.15;39.35;;;;;;;;;;5081302;28;20039;-63
2021/03/03 13:20:02;;;;;;;65.93;36.42;;;;;;;;;;5076941;28;20031;-62
2021/03/03 13:22:28;;;;;;;73.05;37.42;;;;;;;;;;5073782;28;20067;-63
2021/03/03 13:24:54;;;;;;;71.45;37.10;;;;;;;;;;5075715;28;20044;-63
2021/03/03 13:27:20;;;;;;;68.65;36.53;;;;;;;;;;5072345;28;21964;-61
2021/03/03 13:29:48;;;;;;;70.55;37.60;;;;;;;;;;5078274;28;20402;-64
2021/03/03 13:32:14;;;;;;;67.47;39.70;;;;;;;;;;5079709;28;20031;-67
2021/03/03 13:34:40;;;;;;;74.22;38.40;;;;;;;;;;5075458;28;20518;-63
2021/03/03 13:37:07;;;;;;;76.68;39.65;;;;;;;;;;5072731;28;20515;-62
2021/03/03 13:39:33;;;;;;;66.45;37.83;;;;;;;;;;5079419;28;20040;-63
2021/03/03 13:42:01;;;;;;;70.43;38.53;;;;;;;;;;5058995;28;20391;-62
2021/03/03 13:44:27;;;;;;;68.03;37.50;;;;;;;;;;5080401;28;20044;-62
2021/03/03 13:46:53;;;;;;;71.35;39.30;;;;;;;;;;5078573;28;20124;-62